Time;durP1;ratioP1;P1;durP2;ratioP2;P2;SDS_P1;SDS_P2;PMS_P1;PMS_P2;Temp;Humidity;BMP_temperature;BMP_pressure;BME280_temperature;BME280_humidity;BME280_pressure;Samples;Min_cycle;Max_cycle;Signal;HPM_P1;HPM_P2
2021/05/05 05:22:21;;;;;;;9.93;6.33;;;;;;;9.23;72.06;100053.72;1678634;83;21180;-42
2021/05/05 05:24:49;;;;;;;13.05;6.80;;;;;;;9.33;71.65;100045.00;1659509;84;21353;-42
2021/05/05 05:27:17;;;;;;;14.18;6.60;;;;;;;9.37;70.62;100050.67;1712084;82;21251;-42
2021/05/05 05:29:45;;;;;;;10.53;7.22;;;;;;;9.41;70.85;100048.95;1689575;82;21153;-37
2021/05/05 05:32:13;;;;;;;11.68;6.00;;;;;;;9.48;70.72;100044.16;1736464;82;21184;-37
2021/05/05 05:34:42;;;;;;;11.88;5.85;;;;;;;9.62;70.09;100046.77;1696449;82;21178;-43
2021/05/05 05:37:10;;;;;;;9.30;5.97;;;;;;;9.72;69.79;100042.84;1726410;82;21624;-43
2021/05/05 05:39:38;;;;;;;8.15;5.53;;;;;;;9.82;69.44;100043.72;1658632;85;21631;-37
2021/05/05 05:42:06;;;;;;;12.40;5.92;;;;;;;9.91;68.45;100042.38;1710913;82;21315;-38
2021/05/05 05:44:34;;;;;;;10.75;5.30;;;;;;;10.06;67.46;100042.81;1719278;83;21730;-40
2021/05/05 05:47:02;;;;;;;16.23;5.97;;;;;;;10.22;67.31;100039.29;1719732;83;21777;-43
2021/05/05 05:49:30;;;;;;;12.53;5.33;;;;;;;10.42;66.22;100033.16;1736243;82;21194;-42
2021/05/05 05:51:58;;;;;;;11.12;5.55;;;;;;;10.60;65.71;100026.53;1711155;82;21191;-42
2021/05/05 05:54:26;;;;;;;8.15;5.05;;;;;;;10.78;66.35;100030.37;1660736;85;21226;-37
2021/05/05 05:56:55;;;;;;;9.53;4.37;;;;;;;11.02;65.16;100026.78;1674530;84;22105;-37
2021/05/05 05:59:23;;;;;;;7.97;3.60;;;;;;;11.25;63.99;100021.39;1699763;84;21334;-42
2021/05/05 06:01:51;;;;;;;7.28;3.30;;;;;;;11.49;62.73;100023.39;1706334;84;21202;-37
2021/05/05 06:04:19;;;;;;;4.83;2.33;;;;;;;11.72;62.30;100020.14;1706319;84;21132;-42
2021/05/05 06:06:47;;;;;;;8.30;2.50;;;;;;;11.95;59.38;100014.27;1706345;84;21306;-42
2021/05/05 06:09:15;;;;;;;5.72;1.80;;;;;;;12.19;58.86;100018.83;1706400;84;21203;-42
2021/05/05 06:11:43;;;;;;;2.17;1.90;;;;;;;12.40;58.26;100019.00;1693341;84;21219;-42
2021/05/05 06:14:12;;;;;;;4.22;2.00;;;;;;;12.58;56.46;100022.75;1687133;82;21651;-42
2021/05/05 06:16:40;;;;;;;3.47;1.90;;;;;;;12.74;56.13;100023.39;1700629;84;21341;-37
2021/05/05 06:19:09;;;;;;;4.83;2.08;;;;;;;12.91;55.75;100011.36;1706455;84;21160;-43
2021/05/05 06:21:37;;;;;;;2.55;1.80;;;;;;;13.08;53.73;100011.98;1695605;84;21170;-43
2021/05/05 06:24:08;;;;;;;6.90;1.77;;;;;;;13.21;53.60;100013.56;1681740;84;21634;-41
2021/05/05 06:26:36;;;;;;;4.37;1.80;;;;;;;13.36;52.79;100012.92;1704311;84;21224;-37
2021/05/05 06:29:04;;;;;;;2.77;1.82;;;;;;;13.49;52.01;100015.31;1706500;84;21195;-37
2021/05/05 06:31:32;;;;;;;6.15;2.25;;;;;;;13.61;51.24;100003.73;1706634;84;21772;-38
2021/05/05 06:34:00;;;;;;;10.93;2.02;;;;;;;13.74;51.74;100005.69;1693528;84;21570;-36
2021/05/05 06:36:30;;;;;;;4.22;1.80;;;;;;;13.87;51.37;99996.72;1687453;84;21605;-36
2021/05/05 06:38:59;;;;;;;8.23;1.70;;;;;;;13.97;50.68;100003.97;1687788;84;21606;-41
2021/05/05 06:41:26;;;;;;;4.22;2.12;;;;;;;14.04;49.58;100005.61;1688233;82;21175;-42
2021/05/05 06:43:55;;;;;;;7.05;1.50;;;;;;;14.12;50.07;100002.38;1687508;84;21205;-36
2021/05/05 06:46:23;;;;;;;7.72;1.60;;;;;;;14.25;49.52;99991.16;1699097;84;21167;-42
2021/05/05 06:48:52;;;;;;;3.58;1.40;;;;;;;14.39;48.73;100003.61;1706505;84;21176;-42
2021/05/05 06:51:20;;;;;;;3.17;1.30;;;;;;;14.53;48.87;99998.95;1706360;84;22031;-42
2021/05/05 06:53:48;;;;;;;6.03;1.57;;;;;;;14.65;46.62;99989.92;1706535;84;21741;-41
2021/05/05 06:56:16;;;;;;;10.03;1.62;;;;;;;14.85;45.63;99981.61;1697091;84;21841;-36
2021/05/05 06:58:43;;;;;;;3.70;1.15;;;;;;;15.03;44.56;99987.77;1687625;84;21162;-42
2021/05/05 07:01:11;;;;;;;9.30;1.62;;;;;;;15.16;41.51;99981.76;1697194;82;21170;-42
2021/05/05 07:03:39;;;;;;;16.00;2.22;;;;;;;15.26;40.65;99985.91;1692454;84;21191;-36
2021/05/05 07:06:07;;;;;;;1.75;1.20;;;;;;;15.35;41.10;99979.53;1703420;84;21176;-36
2021/05/05 07:08:35;;;;;;;5.42;1.25;;;;;;;15.42;40.74;99974.52;1706542;84;21184;-36
2021/05/05 07:15:21;;;;;;;7.00;1.65;;;;;;;15.64;41.42;99964.34;1687931;82;21175;-37
2021/05/05 07:17:52;;;;;;;4.42;1.30;;;;;;;15.86;42.28;99965.51;1672625;82;21139;-42
2021/05/05 07:20:20;;;;;;;6.75;1.60;;;;;;;15.93;40.64;99959.61;1702211;84;21318;-38
2021/05/05 07:22:47;;;;;;;5.72;1.45;;;;;;;15.97;41.16;99961.27;1671642;84;21160;-38
2021/05/05 07:25:15;;;;;;;4.85;1.20;;;;;;;16.05;41.67;99971.14;1700177;84;21809;-37
2021/05/05 07:27:43;;;;;;;2.58;1.30;;;;;;;16.16;40.56;99963.80;1694884;84;21211;-42
2021/05/05 07:30:13;;;;;;;8.00;1.20;;;;;;;16.19;40.78;99966.83;1706903;84;21140;-43
2021/05/05 07:32:41;;;;;;;1.70;1.02;;;;;;;16.26;41.14;99953.86;1699419;83;21823;-38
2021/05/05 07:35:10;;;;;;;3.12;1.10;;;;;;;16.35;40.56;99954.03;1698227;83;21619;-37
2021/05/05 07:46:44;;;;;;;2.12;1.25;;;;;;;16.59;41.31;99960.39;1683622;84;21193;-41
2021/05/05 07:49:13;;;;;;;3.55;1.25;;;;;;;16.67;40.71;99951.31;1682679;84;21156;-37
2021/05/05 07:51:40;;;;;;;8.60;1.65;;;;;;;16.86;41.81;99944.17;1694327;84;22745;-36
2021/05/05 07:54:08;;;;;;;4.37;1.40;;;;;;;17.02;39.81;99944.96;1692136;84;21175;-36
2021/05/05 07:56:36;;;;;;;6.20;1.20;;;;;;;17.02;39.64;99941.45;1699670;84;21176;-41
2021/05/05 07:59:03;;;;;;;4.67;1.15;;;;;;;17.01;39.64;99945.02;1689016;84;21532;-36
2021/05/05 08:01:31;;;;;;;1.57;1.17;;;;;;;17.06;40.67;99937.81;1687885;84;21231;-41
2021/05/05 08:04:00;;;;;;;3.00;1.27;;;;;;;17.16;39.68;99940.58;1702440;84;21345;-42
2021/05/05 08:06:28;;;;;;;1.85;0.95;;;;;;;17.20;39.75;99934.70;1706921;84;21227;-41
2021/05/05 08:08:58;;;;;;;2.60;1.40;;;;;;;17.26;41.92;99931.86;1701839;84;21179;-42
2021/05/05 08:11:26;;;;;;;7.25;2.27;;;;;;;17.45;39.66;99938.71;1691901;84;21153;-42
2021/05/05 08:13:55;;;;;;;3.33;1.30;;;;;;;17.53;38.75;99938.88;1691157;84;21207;-37
2021/05/05 08:16:22;;;;;;;3.08;1.62;;;;;;;17.55;39.31;99926.91;1690375;84;21159;-37
2021/05/05 08:18:50;;;;;;;2.60;1.15;;;;;;;17.58;38.57;99945.34;1692852;84;21187;-37
2021/05/05 08:21:20;;;;;;;5.17;1.40;;;;;;;17.56;38.85;99934.78;1698457;84;21658;-37
2021/05/05 08:23:49;;;;;;;1.45;1.20;;;;;;;17.52;38.93;99947.73;1685092;84;21651;-37
2021/05/05 08:26:17;;;;;;;6.28;1.47;;;;;;;17.51;38.86;99927.50;1692571;84;21601;-42
2021/05/05 08:28:45;;;;;;;3.27;1.20;;;;;;;17.59;39.99;99921.08;1693674;84;21592;-37
2021/05/05 08:31:14;;;;;;;4.78;1.47;;;;;;;17.74;39.80;99915.26;1684563;84;21632;-37
2021/05/05 08:33:43;;;;;;;2.83;1.20;;;;;;;17.89;39.53;99935.03;1678138;84;21722;-42
2021/05/05 08:36:11;;;;;;;2.85;1.32;;;;;;;17.94;38.41;99923.36;1680133;82;21647;-37
2021/05/05 08:38:39;;;;;;;4.28;1.62;;;;;;;17.92;39.07;99920.38;1702778;82;21662;-42
2021/05/05 08:41:09;;;;;;;3.35;1.20;;;;;;;17.93;38.77;99913.70;1697877;84;21198;-43
2021/05/05 08:43:37;;;;;;;2.00;1.25;;;;;;;18.00;40.33;99930.22;1693147;84;21643;-42
2021/05/05 08:46:06;;;;;;;10.20;1.70;;;;;;;18.03;39.57;99916.43;1706978;84;21196;-36
2021/05/05 08:48:36;;;;;;;15.43;2.17;;;;;;;18.05;39.79;99917.69;1699094;82;21248;-42
2021/05/05 08:51:08;;;;;;;12.45;1.35;;;;;;;18.17;39.54;99933.12;1691413;84;21165;-42
2021/05/05 09:01:22;;;;;;;9.70;1.60;;;;;;;18.15;41.12;99920.84;1679413;82;21268;-37
2021/05/05 09:03:50;;;;;;;2.15;1.50;;;;;;;18.24;40.70;99908.59;1686438;82;21608;-42
2021/05/05 09:06:20;;;;;;;2.62;1.57;;;;;;;18.24;39.33;99896.22;1670029;82;21181;-37
2021/05/05 09:08:48;;;;;;;7.45;1.57;;;;;;;18.19;39.91;99893.34;1700813;83;21648;-43
2021/05/05 09:11:16;;;;;;;2.50;1.42;;;;;;;18.18;39.94;99895.59;1681060;84;21184;-36
2021/05/05 09:13:54;;;;;;;2.72;1.52;;;;;;;18.17;39.94;99896.05;1692801;84;21189;-42
2021/05/05 09:16:26;;;;;;;2.77;1.30;;;;;;;18.19;39.81;99904.79;1693216;84;21205;-37
2021/05/05 09:19:04;;;;;;;4.65;1.20;;;;;;;18.25;39.28;99899.73;1686184;84;21604;-42
2021/05/05 09:24:31;;;;;;;8.93;1.57;;;;;;;18.67;39.54;99877.39;1798697;79;23532;-41
2021/05/05 09:27:08;;;;;;;7.03;1.57;;;;;;;18.80;38.46;99868.02;1747852;80;21700;-42
2021/05/05 09:29:47;;;;;;;7.12;1.30;;;;;;;18.93;39.15;99852.47;1758086;80;21568;-37
2021/05/05 09:32:18;;;;;;;2.95;1.30;;;;;;;19.03;38.76;99848.98;1757469;81;21249;-43
2021/05/05 09:35:05;;;;;;;18.67;3.10;;;;;;;18.99;38.09;99873.42;1757636;81;21187;-37
2021/05/05 09:37:33;;;;;;;8.85;1.75;;;;;;;18.78;38.49;99854.41;1757493;81;21181;-37
2021/05/05 09:40:11;;;;;;;13.53;1.57;;;;;;;18.69;39.49;99845.53;1757071;81;21724;-42
2021/05/05 09:42:41;;;;;;;3.55;1.32;;;;;;;18.73;40.77;99869.63;1756457;81;21161;-41
2021/05/05 09:45:11;;;;;;;3.40;1.27;;;;;;;18.75;39.69;99862.50;1757126;81;21162;-36
2021/05/05 09:47:54;;;;;;;2.72;1.27;;;;;;;18.70;39.03;99852.08;1778558;79;21553;-41
2021/05/05 09:50:44;;;;;;;5.70;1.22;;;;;;;18.63;39.49;99858.99;1694814;84;21249;-37
2021/05/05 09:53:21;;;;;;;6.90;1.95;;;;;;;18.68;40.57;99855.73;1718090;83;21233;-42
2021/05/05 09:56:05;;;;;;;7.92;1.30;;;;;;;18.86;39.39;99859.81;1712239;83;21201;-41
2021/05/05 09:58:44;;;;;;;3.05;1.27;;;;;;;18.93;38.77;99864.87;1723314;83;21228;-36
2021/05/05 10:01:15;;;;;;;5.28;1.20;;;;;;;18.79;38.99;99843.78;1724015;83;21672;-41
2021/05/05 10:03:48;;;;;;;2.60;1.12;;;;;;;18.72;39.98;99863.47;1746261;82;21349;-42
2021/05/05 10:06:33;;;;;;;;;;;;;;;18.66;39.44;99862.36;1730693;83;21212;-36
2021/05/05 10:09:10;;;;;;;3.20;1.42;;;;;;;18.59;39.35;99870.16;1723905;83;20407;-42
2021/05/05 10:11:40;;;;;;;2.75;1.50;;;;;;;18.67;39.67;99849.97;1723927;83;21642;-44
2021/05/05 10:14:13;;;;;;;3.75;1.22;;;;;;;18.70;40.29;99843.28;1724103;83;21201;-39
2021/05/05 10:16:46;;;;;;;3.98;1.15;;;;;;;18.73;39.95;99847.11;1723900;83;21169;-38
2021/05/05 10:19:26;;;;;;;5.28;1.40;;;;;;;18.78;39.11;99848.65;1724019;83;21196;-38
2021/05/05 10:21:57;;;;;;;4.53;1.30;;;;;;;18.75;39.58;99839.98;1723823;83;21208;-44
2021/05/05 10:24:29;;;;;;;4.90;1.30;;;;;;;18.82;39.01;99836.15;1719684;83;21150;-43
2021/05/05 10:26:57;;;;;;;4.58;1.30;;;;;;;19.07;38.78;99833.33;1719402;82;21207;-44
2021/05/05 10:29:28;;;;;;;6.28;1.95;;;;;;;19.34;36.95;99828.65;1719373;83;21186;-38
2021/05/05 10:32:00;;;;;;;5.53;1.20;;;;;;;19.34;37.94;99820.23;1719265;83;21246;-39
2021/05/05 10:34:28;;;;;;;6.17;1.42;;;;;;;19.68;37.34;99821.90;1719166;82;21643;-44
2021/05/05 10:37:00;;;;;;;7.40;1.20;;;;;;;19.86;36.57;99823.72;1722220;82;21753;-44
2021/05/05 10:39:36;;;;;;;3.42;1.30;;;;;;;20.19;35.40;99833.25;1732899;82;21160;-38
2021/05/05 10:42:21;;;;;;;2.70;1.27;;;;;;;20.36;34.59;99822.70;1695507;83;21678;-38
2021/05/05 10:44:58;;;;;;;5.58;1.52;;;;;;;20.53;34.60;99827.70;1727053;83;21172;-41
2021/05/05 10:47:35;;;;;;;4.67;1.40;;;;;;;20.83;36.10;99816.04;1700362;83;21180;-36
2021/05/05 10:50:12;;;;;;;3.92;1.80;;;;;;;21.32;33.20;99813.09;1690018;83;21156;-36
2021/05/05 10:52:54;;;;;;;5.05;0.90;;;;;;;21.72;31.96;99826.97;1711618;83;21506;-36
2021/05/05 10:55:32;;;;;;;2.25;1.02;;;;;;;21.56;32.16;99820.27;1703594;83;21198;-42
2021/05/05 10:58:14;;;;;;;4.62;1.42;;;;;;;21.61;32.73;99805.39;1698654;84;21704;-37
2021/05/05 11:00:50;;;;;;;4.95;1.25;;;;;;;21.78;31.35;99817.33;1698458;83;22224;-42
2021/05/05 11:03:18;;;;;;;6.78;1.60;;;;;;;21.96;30.90;99815.47;1698373;83;21187;-42
2021/05/05 11:05:48;;;;;;;5.03;1.00;;;;;;;22.16;30.27;99810.44;1689696;83;21240;-42
2021/05/05 11:08:27;;;;;;;6.97;1.77;;;;;;;21.76;30.36;99812.56;1705662;83;21320;-42
2021/05/05 11:10:57;;;;;;;5.75;1.10;;;;;;;21.43;31.77;99810.73;1690098;83;21256;-36
2021/05/05 11:13:32;;;;;;;1.98;1.12;;;;;;;21.11;31.14;99805.73;1703152;84;21193;-41
2021/05/05 11:16:00;;;;;;;7.83;1.60;;;;;;;20.95;31.68;99804.79;1720529;82;21788;-43
2021/05/05 11:18:39;;;;;;;8.13;1.20;;;;;;;21.10;31.39;99822.61;1684917;84;21358;-38
2021/05/05 11:21:10;;;;;;;1.25;1.02;;;;;;;21.20;32.42;99794.61;1715158;83;21787;-37
2021/05/05 11:23:43;;;;;;;9.25;1.65;;;;;;;21.25;31.19;99789.05;1692728;84;21182;-37
2021/05/05 11:26:29;;;;;;;8.60;2.45;;;;;;;20.97;31.38;99798.91;1740640;82;21226;-37
2021/05/05 11:29:06;;;;;;;3.83;1.10;;;;;;;20.81;31.87;99785.52;1741038;82;21602;-38
2021/05/05 11:31:55;;;;;;;5.70;1.10;;;;;;;20.52;31.73;99806.89;1740993;82;21646;-38
2021/05/05 11:34:29;;;;;;;4.62;1.42;;;;;;;20.24;32.09;99795.87;1740720;82;21217;-39
2021/05/05 11:37:10;;;;;;;4.35;1.05;;;;;;;20.30;34.95;99794.24;1737727;82;21189;-43
2021/05/05 11:39:53;;;;;;;2.65;1.20;;;;;;;20.52;33.31;99791.42;1740799;82;21158;-43
2021/05/05 11:42:27;;;;;;;1.55;1.10;;;;;;;20.71;33.28;99786.47;1740847;82;21161;-43
2021/05/05 11:44:58;;;;;;;8.40;1.60;;;;;;;20.85;33.02;99796.41;1758649;81;21148;-38
2021/05/05 11:47:37;;;;;;;5.22;1.00;;;;;;;20.98;32.81;99788.66;1750491;81;21153;-43
2021/05/05 11:50:09;;;;;;;3.65;1.50;;;;;;;21.01;32.02;99785.00;1763524;81;21513;-43
2021/05/05 11:52:42;;;;;;;6.97;1.50;;;;;;;20.84;31.57;99797.81;1748621;81;21187;-43
2021/05/05 11:55:15;;;;;;;2.85;1.30;;;;;;;20.72;32.78;99784.20;1764733;81;21592;-43
2021/05/05 11:57:50;;;;;;;4.15;1.12;;;;;;;20.66;32.52;99765.90;1703234;84;21211;-37
2021/05/05 12:00:21;;;;;;;5.47;1.37;;;;;;;20.61;32.25;99776.36;1690564;84;21140;-37
2021/05/05 12:03:09;;;;;;;2.67;1.72;;;;;;;20.64;33.03;99777.09;1680381;83;21158;-43
2021/05/05 12:05:41;;;;;;;3.85;1.30;;;;;;;20.69;30.55;99773.70;1770062;81;21229;-43
2021/05/05 12:08:17;;;;;;;1.47;1.10;;;;;;;20.65;32.05;99765.98;1744981;81;21208;-44
2021/05/05 12:11:01;;;;;;;6.53;1.20;;;;;;;20.57;31.90;99770.80;1744229;81;21194;-43
2021/05/05 12:13:42;;;;;;;4.33;1.25;;;;;;;20.54;32.13;99765.18;1769294;81;21208;-38
2021/05/05 12:16:18;;;;;;;7.10;1.62;;;;;;;20.55;32.22;99753.61;1748713;81;21493;-37
2021/05/05 12:18:49;;;;;;;11.45;1.65;;;;;;;20.52;32.66;99762.19;1738633;81;22040;-38
2021/05/05 12:21:25;;;;;;;5.05;1.27;;;;;;;20.53;32.37;99751.52;1726222;82;21176;-42
2021/05/05 12:23:57;;;;;;;1.82;1.20;;;;;;;20.56;32.88;99757.13;1743006;81;21172;-42
2021/05/05 12:26:28;;;;;;;3.45;1.30;;;;;;;20.46;31.96;99754.91;1743598;81;21209;-42
2021/05/05 12:29:02;;;;;;;2.73;1.33;;;;;;;20.33;33.31;99753.77;1754782;81;21195;-36
2021/05/05 12:31:30;;;;;;;;;;;;;;;20.38;32.95;99746.91;1700787;84;21178;-42
2021/05/05 12:33:59;;;;;;;4.83;1.20;;;;;;;20.46;32.93;99744.75;1680021;84;20210;-41
2021/05/05 12:36:30;;;;;;;7.10;1.40;;;;;;;20.53;33.04;99758.63;1740473;82;21193;-41
